sensor_id;sensor_type;location;lat;lon;timestamp;temperature;humidity
20068;DHT22;10194;50.824;7.134;2023-04-28T00:01:20;12.60;99.90
20068;DHT22;10194;50.824;7.134;2023-04-28T00:03:46;12.50;99.90
20068;DHT22;10194;50.824;7.134;2023-04-28T00:06:13;12.50;99.90
20068;DHT22;10194;50.824;7.134;2023-04-28T00:08:39;12.50;99.90
20068;DHT22;10194;50.824;7.134;2023-04-28T00:11:11;12.50;99.90
20068;DHT22;10194;50.824;7.134;2023-04-28T00:13:37;12.50;99.90
20068;DHT22;10194;50.824;7.134;2023-04-28T00:16:04;12.50;99.90
20068;DHT22;10194;50.824;7.134;2023-04-28T00:18:30;12.50;99.90
20068;DHT22;10194;50.824;7.134;2023-04-28T00:20:57;12.50;99.90
20068;DHT22;10194;50.824;7.134;2023-04-28T00:23:23;12.50;99.90
20068;DHT22;10194;50.824;7.134;2023-04-28T00:25:52;12.50;99.90
20068;DHT22;10194;50.824;7.134;2023-04-28T00:28:19;12.60;99.90
20068;DHT22;10194;50.824;7.134;2023-04-28T00:30:45;12.50;99.90
20068;DHT22;10194;50.824;7.134;2023-04-28T00:33:12;12.50;99.90
20068;DHT22;10194;50.824;7.134;2023-04-28T00:35:38;12.60;99.90
20068;DHT22;10194;50.824;7.134;2023-04-28T00:38:06;12.50;99.90
20068;DHT22;10194;50.824;7.134;2023-04-28T00:40:36;12.50;99.90
20068;DHT22;10194;50.824;7.134;2023-04-28T00:43:03;12.50;99.90
20068;DHT22;10194;50.824;7.134;2023-04-28T00:45:30;12.50;99.90
20068;DHT22;10194;50.824;7.134;2023-04-28T00:47:56;12.60;99.90
20068;DHT22;10194;50.824;7.134;2023-04-28T00:50:23;12.50;99.90
20068;DHT22;10194;50.824;7.134;2023-04-28T00:52:50;12.40;99.90
20068;DHT22;10194;50.824;7.134;2023-04-28T00:55:16;12.50;99.90
20068;DHT22;10194;50.824;7.134;2023-04-28T00:57:45;12.30;99.90
20068;DHT22;10194;50.824;7.134;2023-04-28T01:00:11;12.40;99.90
20068;DHT22;10194;50.824;7.134;2023-04-28T01:02:37;12.40;99.90
20068;DHT22;10194;50.824;7.134;2023-04-28T01:05:03;12.30;99.90
20068;DHT22;10194;50.824;7.134;2023-04-28T01:07:29;12.40;99.90
20068;DHT22;10194;50.824;7.134;2023-04-28T01:09:55;12.30;99.90
20068;DHT22;10194;50.824;7.134;2023-04-28T01:12:21;12.40;99.90
20068;DHT22;10194;50.824;7.134;2023-04-28T01:14:48;12.40;99.90
20068;DHT22;10194;50.824;7.134;2023-04-28T01:17:14;12.40;99.90
20068;DHT22;10194;50.824;7.134;2023-04-28T01:19:40;12.40;99.90
20068;DHT22;10194;50.824;7.134;2023-04-28T01:22:06;12.40;99.90
20068;DHT22;10194;50.824;7.134;2023-04-28T01:24:33;12.50;99.90
20068;DHT22;10194;50.824;7.134;2023-04-28T01:26:59;12.50;99.90
20068;DHT22;10194;50.824;7.134;2023-04-28T01:29:25;12.40;99.90
20068;DHT22;10194;50.824;7.134;2023-04-28T01:31:50;12.40;99.90
20068;DHT22;10194;50.824;7.134;2023-04-28T01:34:16;12.30;99.90
20068;DHT22;10194;50.824;7.134;2023-04-28T01:36:42;12.10;99.90
20068;DHT22;10194;50.824;7.134;2023-04-28T01:39:08;12.00;99.90
20068;DHT22;10194;50.824;7.134;2023-04-28T01:41:33;11.90;99.90
20068;DHT22;10194;50.824;7.134;2023-04-28T01:43:59;11.90;99.90
20068;DHT22;10194;50.824;7.134;2023-04-28T01:46:25;11.80;99.90
20068;DHT22;10194;50.824;7.134;2023-04-28T01:48:51;11.80;99.90
20068;DHT22;10194;50.824;7.134;2023-04-28T01:51:17;11.90;99.90
20068;DHT22;10194;50.824;7.134;2023-04-28T01:53:42;11.90;99.90
20068;DHT22;10194;50.824;7.134;2023-04-28T01:56:08;11.80;99.90
20068;DHT22;10194;50.824;7.134;2023-04-28T01:58:34;11.80;99.90
20068;DHT22;10194;50.824;7.134;2023-04-28T02:00:59;11.90;99.90
20068;DHT22;10194;50.824;7.134;2023-04-28T02:03:25;11.80;99.90
20068;DHT22;10194;50.824;7.134;2023-04-28T02:05:52;11.90;99.90
20068;DHT22;10194;50.824;7.134;2023-04-28T02:08:18;11.90;99.90
20068;DHT22;10194;50.824;7.134;2023-04-28T02:10:44;11.90;99.90
20068;DHT22;10194;50.824;7.134;2023-04-28T02:13:10;11.90;99.90
20068;DHT22;10194;50.824;7.134;2023-04-28T02:15:43;11.90;99.90
20068;DHT22;10194;50.824;7.134;2023-04-28T02:18:11;11.90;99.90
20068;DHT22;10194;50.824;7.134;2023-04-28T02:20:37;11.80;99.90
20068;DHT22;10194;50.824;7.134;2023-04-28T02:23:03;11.80;99.90
20068;DHT22;10194;50.824;7.134;2023-04-28T02:25:28;11.80;99.90
20068;DHT22;10194;50.824;7.134;2023-04-28T02:27:54;11.70;99.90
20068;DHT22;10194;50.824;7.134;2023-04-28T02:30:20;11.70;99.90
20068;DHT22;10194;50.824;7.134;2023-04-28T02:32:47;11.70;99.90
20068;DHT22;10194;50.824;7.134;2023-04-28T02:35:13;11.70;99.90
20068;DHT22;10194;50.824;7.134;2023-04-28T02:37:39;11.70;99.90
20068;DHT22;10194;50.824;7.134;2023-04-28T02:40:05;11.60;99.90
20068;DHT22;10194;50.824;7.134;2023-04-28T02:42:32;11.60;99.90
20068;DHT22;10194;50.824;7.134;2023-04-28T02:44:57;11.70;99.90
20068;DHT22;10194;50.824;7.134;2023-04-28T02:47:23;11.70;99.90
20068;DHT22;10194;50.824;7.134;2023-04-28T02:49:49;11.70;99.90
20068;DHT22;10194;50.824;7.134;2023-04-28T02:52:15;11.70;99.90
20068;DHT22;10194;50.824;7.134;2023-04-28T02:54:40;11.70;99.90
20068;DHT22;10194;50.824;7.134;2023-04-28T02:57:06;11.60;99.90
20068;DHT22;10194;50.824;7.134;2023-04-28T02:59:32;11.70;99.90
20068;DHT22;10194;50.824;7.134;2023-04-28T03:01:58;11.60;99.90
20068;DHT22;10194;50.824;7.134;2023-04-28T03:04:24;11.60;99.90
20068;DHT22;10194;50.824;7.134;2023-04-28T03:06:50;11.60;99.90
20068;DHT22;10194;50.824;7.134;2023-04-28T03:09:16;11.60;99.90
20068;DHT22;10194;50.824;7.134;2023-04-28T03:11:41;11.50;99.90
20068;DHT22;10194;50.824;7.134;2023-04-28T03:14:07;11.50;99.90
20068;DHT22;10194;50.824;7.134;2023-04-28T03:16:33;11.50;99.90
20068;DHT22;10194;50.824;7.134;2023-04-28T03:18:59;11.50;99.90
20068;DHT22;10194;50.824;7.134;2023-04-28T03:21:25;11.50;99.90
20068;DHT22;10194;50.824;7.134;2023-04-28T03:23:52;11.50;99.90
20068;DHT22;10194;50.824;7.134;2023-04-28T03:26:18;11.50;99.90
20068;DHT22;10194;50.824;7.134;2023-04-28T03:28:44;11.50;99.90
20068;DHT22;10194;50.824;7.134;2023-04-28T03:31:10;11.50;99.90
20068;DHT22;10194;50.824;7.134;2023-04-28T03:33:36;11.50;99.90
20068;DHT22;10194;50.824;7.134;2023-04-28T03:36:01;11.40;99.90
20068;DHT22;10194;50.824;7.134;2023-04-28T03:38:27;11.40;99.90
20068;DHT22;10194;50.824;7.134;2023-04-28T03:40:53;11.40;99.90
20068;DHT22;10194;50.824;7.134;2023-04-28T03:43:19;11.30;99.90
20068;DHT22;10194;50.824;7.134;2023-04-28T03:45:45;11.20;99.90
20068;DHT22;10194;50.824;7.134;2023-04-28T03:48:11;11.10;99.90
20068;DHT22;10194;50.824;7.134;2023-04-28T03:50:36;10.90;99.90
20068;DHT22;10194;50.824;7.134;2023-04-28T03:53:04;10.90;99.90
20068;DHT22;10194;50.824;7.134;2023-04-28T03:55:30;10.70;99.90
20068;DHT22;10194;50.824;7.134;2023-04-28T03:57:56;10.50;99.90
20068;DHT22;10194;50.824;7.134;2023-04-28T04:00:21;10.60;99.90
20068;DHT22;10194;50.824;7.134;2023-04-28T04:02:47;10.60;99.90
20068;DHT22;10194;50.824;7.134;2023-04-28T04:05:13;10.50;99.90
20068;DHT22;10194;50.824;7.134;2023-04-28T04:07:39;10.50;99.90
20068;DHT22;10194;50.824;7.134;2023-04-28T04:10:05;10.40;99.90
20068;DHT22;10194;50.824;7.134;2023-04-28T04:12:31;10.30;99.90
20068;DHT22;10194;50.824;7.134;2023-04-28T04:14:57;10.30;99.90
20068;DHT22;10194;50.824;7.134;2023-04-28T04:17:23;10.30;99.90
20068;DHT22;10194;50.824;7.134;2023-04-28T04:19:48;10.30;99.90
20068;DHT22;10194;50.824;7.134;2023-04-28T04:22:14;10.30;99.90
20068;DHT22;10194;50.824;7.134;2023-04-28T04:24:40;10.30;99.90
20068;DHT22;10194;50.824;7.134;2023-04-28T04:27:06;10.30;99.90
20068;DHT22;10194;50.824;7.134;2023-04-28T04:29:32;10.30;99.90
20068;DHT22;10194;50.824;7.134;2023-04-28T04:31:57;10.40;99.90
20068;DHT22;10194;50.824;7.134;2023-04-28T04:34:23;10.30;99.90
20068;DHT22;10194;50.824;7.134;2023-04-28T04:36:49;10.40;99.90
20068;DHT22;10194;50.824;7.134;2023-04-28T04:39:14;10.30;99.90
20068;DHT22;10194;50.824;7.134;2023-04-28T04:41:40;10.40;99.90
20068;DHT22;10194;50.824;7.134;2023-04-28T04:44:06;10.30;99.90
20068;DHT22;10194;50.824;7.134;2023-04-28T04:46:32;10.40;99.90
20068;DHT22;10194;50.824;7.134;2023-04-28T04:48:58;10.40;99.90
20068;DHT22;10194;50.824;7.134;2023-04-28T04:51:23;10.40;99.90
20068;DHT22;10194;50.824;7.134;2023-04-28T04:53:49;10.40;99.90
20068;DHT22;10194;50.824;7.134;2023-04-28T04:56:15;10.50;99.90
20068;DHT22;10194;50.824;7.134;2023-04-28T04:58:42;10.50;99.90
20068;DHT22;10194;50.824;7.134;2023-04-28T05:01:11;10.50;99.90
20068;DHT22;10194;50.824;7.134;2023-04-28T05:03:36;10.50;99.90
20068;DHT22;10194;50.824;7.134;2023-04-28T05:06:02;10.50;99.90
20068;DHT22;10194;50.824;7.134;2023-04-28T05:08:28;10.50;99.90
20068;DHT22;10194;50.824;7.134;2023-04-28T05:10:54;10.60;99.90
20068;DHT22;10194;50.824;7.134;2023-04-28T05:13:20;10.60;99.90
20068;DHT22;10194;50.824;7.134;2023-04-28T05:15:46;10.60;99.90
20068;DHT22;10194;50.824;7.134;2023-04-28T05:18:11;10.50;99.90
20068;DHT22;10194;50.824;7.134;2023-04-28T05:20:38;10.50;99.90
20068;DHT22;10194;50.824;7.134;2023-04-28T05:23:04;10.40;99.90
20068;DHT22;10194;50.824;7.134;2023-04-28T05:25:31;10.50;99.90
20068;DHT22;10194;50.824;7.134;2023-04-28T05:27:57;10.40;99.90
20068;DHT22;10194;50.824;7.134;2023-04-28T05:30:23;10.40;99.90
20068;DHT22;10194;50.824;7.134;2023-04-28T05:32:48;10.30;99.90
20068;DHT22;10194;50.824;7.134;2023-04-28T05:35:14;10.30;99.90
20068;DHT22;10194;50.824;7.134;2023-04-28T05:37:40;10.30;99.90
20068;DHT22;10194;50.824;7.134;2023-04-28T05:40:08;10.20;99.90
20068;DHT22;10194;50.824;7.134;2023-04-28T05:42:34;10.20;99.90
20068;DHT22;10194;50.824;7.134;2023-04-28T05:45:00;10.20;99.90
20068;DHT22;10194;50.824;7.134;2023-04-28T05:47:27;10.10;99.90
20068;DHT22;10194;50.824;7.134;2023-04-28T05:49:53;10.20;99.90
20068;DHT22;10194;50.824;7.134;2023-04-28T05:52:19;10.10;99.90
20068;DHT22;10194;50.824;7.134;2023-04-28T05:54:45;10.10;99.90
20068;DHT22;10194;50.824;7.134;2023-04-28T05:57:11;10.10;99.90
20068;DHT22;10194;50.824;7.134;2023-04-28T05:59:37;10.10;99.90
20068;DHT22;10194;50.824;7.134;2023-04-28T06:02:03;10.10;99.90
20068;DHT22;10194;50.824;7.134;2023-04-28T06:04:28;10.20;99.90
20068;DHT22;10194;50.824;7.134;2023-04-28T06:06:54;10.20;99.90
20068;DHT22;10194;50.824;7.134;2023-04-28T06:09:20;10.30;99.90
20068;DHT22;10194;50.824;7.134;2023-04-28T06:11:46;10.40;99.90
20068;DHT22;10194;50.824;7.134;2023-04-28T06:14:12;10.40;99.90
20068;DHT22;10194;50.824;7.134;2023-04-28T06:16:37;10.40;99.90
20068;DHT22;10194;50.824;7.134;2023-04-28T06:19:03;10.40;99.90
20068;DHT22;10194;50.824;7.134;2023-04-28T06:21:29;10.40;99.90
20068;DHT22;10194;50.824;7.134;2023-04-28T06:23:56;10.40;99.90
20068;DHT22;10194;50.824;7.134;2023-04-28T06:26:22;10.50;99.90
20068;DHT22;10194;50.824;7.134;2023-04-28T06:28:48;10.60;99.90
20068;DHT22;10194;50.824;7.134;2023-04-28T06:31:15;10.70;99.90
20068;DHT22;10194;50.824;7.134;2023-04-28T06:33:41;10.70;99.90
20068;DHT22;10194;50.824;7.134;2023-04-28T06:36:07;10.80;99.90
20068;DHT22;10194;50.824;7.134;2023-04-28T06:38:33;10.70;99.90
20068;DHT22;10194;50.824;7.134;2023-04-28T06:40:58;10.70;99.90
20068;DHT22;10194;50.824;7.134;2023-04-28T06:43:24;10.80;99.90
20068;DHT22;10194;50.824;7.134;2023-04-28T06:45:50;10.80;99.90
20068;DHT22;10194;50.824;7.134;2023-04-28T06:48:15;10.90;99.90
20068;DHT22;10194;50.824;7.134;2023-04-28T06:50:41;10.90;99.90
20068;DHT22;10194;50.824;7.134;2023-04-28T06:53:07;10.90;99.90
20068;DHT22;10194;50.824;7.134;2023-04-28T06:55:33;11.00;99.90
20068;DHT22;10194;50.824;7.134;2023-04-28T06:57:59;11.10;99.90
20068;DHT22;10194;50.824;7.134;2023-04-28T07:00:25;11.10;99.90
20068;DHT22;10194;50.824;7.134;2023-04-28T07:02:51;11.30;99.90
20068;DHT22;10194;50.824;7.134;2023-04-28T07:05:17;11.30;99.90
20068;DHT22;10194;50.824;7.134;2023-04-28T07:07:43;11.30;99.90
20068;DHT22;10194;50.824;7.134;2023-04-28T07:10:09;11.20;99.90
20068;DHT22;10194;50.824;7.134;2023-04-28T07:12:35;11.30;99.90
20068;DHT22;10194;50.824;7.134;2023-04-28T07:15:01;11.40;99.90
20068;DHT22;10194;50.824;7.134;2023-04-28T07:17:27;11.50;99.90
20068;DHT22;10194;50.824;7.134;2023-04-28T07:19:53;11.60;99.90
20068;DHT22;10194;50.824;7.134;2023-04-28T07:22:18;11.80;99.90
20068;DHT22;10194;50.824;7.134;2023-04-28T07:24:44;12.00;99.90
20068;DHT22;10194;50.824;7.134;2023-04-28T07:27:10;12.10;99.90
20068;DHT22;10194;50.824;7.134;2023-04-28T07:29:36;12.40;99.90
20068;DHT22;10194;50.824;7.134;2023-04-28T07:32:02;12.50;99.90
20068;DHT22;10194;50.824;7.134;2023-04-28T07:34:33;12.60;99.90
20068;DHT22;10194;50.824;7.134;2023-04-28T07:37:04;12.70;99.90
20068;DHT22;10194;50.824;7.134;2023-04-28T07:39:31;12.50;99.90
20068;DHT22;10194;50.824;7.134;2023-04-28T07:41:59;12.40;99.90
20068;DHT22;10194;50.824;7.134;2023-04-28T07:44:27;12.40;99.90
20068;DHT22;10194;50.824;7.134;2023-04-28T07:46:53;12.30;99.90
20068;DHT22;10194;50.824;7.134;2023-04-28T07:49:19;12.30;99.90
20068;DHT22;10194;50.824;7.134;2023-04-28T07:51:45;12.40;99.90
20068;DHT22;10194;50.824;7.134;2023-04-28T07:54:11;12.50;99.90
20068;DHT22;10194;50.824;7.134;2023-04-28T07:56:37;12.80;99.90
20068;DHT22;10194;50.824;7.134;2023-04-28T07:59:03;12.80;99.90
20068;DHT22;10194;50.824;7.134;2023-04-28T08:01:29;13.20;99.90
20068;DHT22;10194;50.824;7.134;2023-04-28T08:03:54;13.20;99.90
20068;DHT22;10194;50.824;7.134;2023-04-28T08:06:20;13.20;99.90
20068;DHT22;10194;50.824;7.134;2023-04-28T08:08:46;13.30;99.90
20068;DHT22;10194;50.824;7.134;2023-04-28T08:11:12;13.60;99.90
20068;DHT22;10194;50.824;7.134;2023-04-28T08:13:38;13.90;99.90
20068;DHT22;10194;50.824;7.134;2023-04-28T08:16:03;13.80;99.90
20068;DHT22;10194;50.824;7.134;2023-04-28T08:18:29;13.80;99.90
20068;DHT22;10194;50.824;7.134;2023-04-28T08:20:56;13.60;99.90
20068;DHT22;10194;50.824;7.134;2023-04-28T08:23:21;13.70;99.90
20068;DHT22;10194;50.824;7.134;2023-04-28T08:25:48;13.70;99.90
20068;DHT22;10194;50.824;7.134;2023-04-28T08:28:14;14.30;99.90
20068;DHT22;10194;50.824;7.134;2023-04-28T08:30:40;14.90;99.90
20068;DHT22;10194;50.824;7.134;2023-04-28T08:33:06;14.80;99.90
20068;DHT22;10194;50.824;7.134;2023-04-28T08:35:31;14.60;99.90
20068;DHT22;10194;50.824;7.134;2023-04-28T08:37:57;14.30;99.90
20068;DHT22;10194;50.824;7.134;2023-04-28T08:40:23;14.50;99.90
20068;DHT22;10194;50.824;7.134;2023-04-28T08:42:51;15.00;99.90
20068;DHT22;10194;50.824;7.134;2023-04-28T08:45:17;15.10;99.90
20068;DHT22;10194;50.824;7.134;2023-04-28T08:47:43;15.20;99.90
20068;DHT22;10194;50.824;7.134;2023-04-28T08:50:13;15.10;99.90
20068;DHT22;10194;50.824;7.134;2023-04-28T08:52:40;15.10;99.90
20068;DHT22;10194;50.824;7.134;2023-04-28T08:55:09;15.40;99.90
20068;DHT22;10194;50.824;7.134;2023-04-28T08:57:39;15.10;99.90
20068;DHT22;10194;50.824;7.134;2023-04-28T09:00:08;15.10;99.90
20068;DHT22;10194;50.824;7.134;2023-04-28T09:02:35;15.30;99.90
20068;DHT22;10194;50.824;7.134;2023-04-28T09:05:05;15.40;99.90
20068;DHT22;10194;50.824;7.134;2023-04-28T09:07:31;15.30;99.90
20068;DHT22;10194;50.824;7.134;2023-04-28T09:10:22;15.40;99.90
20068;DHT22;10194;50.824;7.134;2023-04-28T09:12:53;15.20;99.90
20068;DHT22;10194;50.824;7.134;2023-04-28T09:15:28;15.20;99.90
20068;DHT22;10194;50.824;7.134;2023-04-28T09:17:55;15.10;99.90
20068;DHT22;10194;50.824;7.134;2023-04-28T09:20:22;15.00;99.90
20068;DHT22;10194;50.824;7.134;2023-04-28T09:22:50;14.80;99.90
20068;DHT22;10194;50.824;7.134;2023-04-28T09:25:17;14.70;99.90
20068;DHT22;10194;50.824;7.134;2023-04-28T09:27:43;14.30;99.90
20068;DHT22;10194;50.824;7.134;2023-04-28T09:30:09;14.00;99.90
20068;DHT22;10194;50.824;7.134;2023-04-28T09:32:36;14.00;99.90
20068;DHT22;10194;50.824;7.134;2023-04-28T09:35:02;14.00;99.90
20068;DHT22;10194;50.824;7.134;2023-04-28T09:37:30;14.20;99.90
20068;DHT22;10194;50.824;7.134;2023-04-28T09:40:01;14.20;99.90
20068;DHT22;10194;50.824;7.134;2023-04-28T09:44:58;13.90;99.90
20068;DHT22;10194;50.824;7.134;2023-04-28T09:47:24;13.90;99.90
20068;DHT22;10194;50.824;7.134;2023-04-28T09:49:54;13.80;99.90
20068;DHT22;10194;50.824;7.134;2023-04-28T09:52:21;13.80;99.90
20068;DHT22;10194;50.824;7.134;2023-04-28T09:54:52;13.80;99.90
20068;DHT22;10194;50.824;7.134;2023-04-28T09:57:19;13.80;99.90
20068;DHT22;10194;50.824;7.134;2023-04-28T09:59:51;13.80;99.90
20068;DHT22;10194;50.824;7.134;2023-04-28T10:02:19;13.80;99.90
20068;DHT22;10194;50.824;7.134;2023-04-28T10:04:49;13.80;99.90
20068;DHT22;10194;50.824;7.134;2023-04-28T10:07:17;13.80;99.90
20068;DHT22;10194;50.824;7.134;2023-04-28T10:09:46;13.80;99.90
20068;DHT22;10194;50.824;7.134;2023-04-28T10:12:24;13.90;99.90
20068;DHT22;10194;50.824;7.134;2023-04-28T10:14:50;13.90;99.90
20068;DHT22;10194;50.824;7.134;2023-04-28T10:17:20;14.00;99.90
20068;DHT22;10194;50.824;7.134;2023-04-28T10:19:49;14.10;99.90
20068;DHT22;10194;50.824;7.134;2023-04-28T10:22:32;14.10;99.90
20068;DHT22;10194;50.824;7.134;2023-04-28T10:25:25;14.10;99.90
20068;DHT22;10194;50.824;7.134;2023-04-28T10:27:58;14.20;99.90
20068;DHT22;10194;50.824;7.134;2023-04-28T10:30:25;14.20;99.90
20068;DHT22;10194;50.824;7.134;2023-04-28T10:35:53;14.30;99.90
20068;DHT22;10194;50.824;7.134;2023-04-28T10:38:20;14.30;99.90
20068;DHT22;10194;50.824;7.134;2023-04-28T10:40:51;14.40;99.90
20068;DHT22;10194;50.824;7.134;2023-04-28T10:58:54;14.80;99.90
20068;DHT22;10194;50.824;7.134;2023-04-28T11:01:25;14.80;99.90
20068;DHT22;10194;50.824;7.134;2023-04-28T11:04:05;14.90;99.90
20068;DHT22;10194;50.824;7.134;2023-04-28T11:06:36;14.80;99.90
20068;DHT22;10194;50.824;7.134;2023-04-28T11:17:06;15.00;99.90
20068;DHT22;10194;50.824;7.134;2023-04-28T11:19:43;14.90;99.90
20068;DHT22;10194;50.824;7.134;2023-04-28T11:22:20;14.90;99.90
20068;DHT22;10194;50.824;7.134;2023-04-28T11:24:58;15.10;99.90
20068;DHT22;10194;50.824;7.134;2023-04-28T11:27:27;15.30;99.90
20068;DHT22;10194;50.824;7.134;2023-04-28T11:29:54;15.60;99.90
20068;DHT22;10194;50.824;7.134;2023-04-28T11:32:33;15.90;99.90
20068;DHT22;10194;50.824;7.134;2023-04-28T11:35:00;16.10;99.90
20068;DHT22;10194;50.824;7.134;2023-04-28T11:37:26;16.30;99.90
20068;DHT22;10194;50.824;7.134;2023-04-28T11:39:52;16.50;99.90
20068;DHT22;10194;50.824;7.134;2023-04-28T11:42:17;16.40;99.90
20068;DHT22;10194;50.824;7.134;2023-04-28T11:44:51;16.60;99.90
20068;DHT22;10194;50.824;7.134;2023-04-28T11:47:32;16.70;99.90
20068;DHT22;10194;50.824;7.134;2023-04-28T11:49:58;16.90;99.90
20068;DHT22;10194;50.824;7.134;2023-04-28T11:52:25;17.10;99.90
20068;DHT22;10194;50.824;7.134;2023-04-28T11:54:53;17.00;99.90
20068;DHT22;10194;50.824;7.134;2023-04-28T11:57:21;17.00;99.90
20068;DHT22;10194;50.824;7.134;2023-04-28T11:59:47;17.00;99.90
20068;DHT22;10194;50.824;7.134;2023-04-28T12:02:13;17.10;99.90
20068;DHT22;10194;50.824;7.134;2023-04-28T12:04:42;17.30;99.90
20068;DHT22;10194;50.824;7.134;2023-04-28T12:07:14;17.70;99.90
20068;DHT22;10194;50.824;7.134;2023-04-28T12:10:13;18.20;99.90
20068;DHT22;10194;50.824;7.134;2023-04-28T12:12:43;18.40;99.90
20068;DHT22;10194;50.824;7.134;2023-04-28T12:15:09;18.40;99.90
20068;DHT22;10194;50.824;7.134;2023-04-28T12:17:37;18.50;99.90
20068;DHT22;10194;50.824;7.134;2023-04-28T12:20:08;18.30;99.90
20068;DHT22;10194;50.824;7.134;2023-04-28T12:22:49;18.50;99.90
20068;DHT22;10194;50.824;7.134;2023-04-28T12:25:18;18.80;99.90
20068;DHT22;10194;50.824;7.134;2023-04-28T12:28:04;18.70;99.90
20068;DHT22;10194;50.824;7.134;2023-04-28T12:30:36;18.90;99.90
20068;DHT22;10194;50.824;7.134;2023-04-28T12:33:24;19.00;99.90
20068;DHT22;10194;50.824;7.134;2023-04-28T12:35:54;19.00;99.90
20068;DHT22;10194;50.824;7.134;2023-04-28T12:38:25;19.00;99.90
20068;DHT22;10194;50.824;7.134;2023-04-28T12:40:51;18.80;99.90
20068;DHT22;10194;50.824;7.134;2023-04-28T12:43:17;18.70;99.90
20068;DHT22;10194;50.824;7.134;2023-04-28T12:45:43;18.50;99.90
20068;DHT22;10194;50.824;7.134;2023-04-28T12:48:09;18.40;99.90
20068;DHT22;10194;50.824;7.134;2023-04-28T12:50:35;18.50;99.90
20068;DHT22;10194;50.824;7.134;2023-04-28T12:53:01;18.40;99.90
20068;DHT22;10194;50.824;7.134;2023-04-28T12:55:28;18.30;99.90
20068;DHT22;10194;50.824;7.134;2023-04-28T12:57:54;18.30;99.90
20068;DHT22;10194;50.824;7.134;2023-04-28T13:00:20;18.30;99.90
20068;DHT22;10194;50.824;7.134;2023-04-28T13:02:48;18.40;99.90
20068;DHT22;10194;50.824;7.134;2023-04-28T13:05:14;18.40;99.90
20068;DHT22;10194;50.824;7.134;2023-04-28T13:07:40;18.50;99.90
20068;DHT22;10194;50.824;7.134;2023-04-28T13:10:06;18.50;99.90
20068;DHT22;10194;50.824;7.134;2023-04-28T13:12:33;18.60;99.90
20068;DHT22;10194;50.824;7.134;2023-04-28T13:15:02;18.60;99.90
20068;DHT22;10194;50.824;7.134;2023-04-28T13:17:29;18.50;99.90
20068;DHT22;10194;50.824;7.134;2023-04-28T13:19:54;18.70;99.90
20068;DHT22;10194;50.824;7.134;2023-04-28T13:22:20;18.80;99.90
20068;DHT22;10194;50.824;7.134;2023-04-28T13:24:47;19.00;99.90
20068;DHT22;10194;50.824;7.134;2023-04-28T13:27:13;19.20;99.90
20068;DHT22;10194;50.824;7.134;2023-04-28T13:29:39;19.30;99.90
20068;DHT22;10194;50.824;7.134;2023-04-28T13:32:05;19.40;99.90
20068;DHT22;10194;50.824;7.134;2023-04-28T13:34:31;19.50;99.90
20068;DHT22;10194;50.824;7.134;2023-04-28T13:36:57;19.50;99.90
20068;DHT22;10194;50.824;7.134;2023-04-28T13:39:23;19.60;99.90
20068;DHT22;10194;50.824;7.134;2023-04-28T13:41:49;19.70;99.90
20068;DHT22;10194;50.824;7.134;2023-04-28T13:44:15;19.60;99.90
20068;DHT22;10194;50.824;7.134;2023-04-28T13:46:41;19.70;99.90
20068;DHT22;10194;50.824;7.134;2023-04-28T13:49:11;19.90;99.90
20068;DHT22;10194;50.824;7.134;2023-04-28T13:51:37;20.20;99.90
20068;DHT22;10194;50.824;7.134;2023-04-28T13:54:03;20.30;99.90
20068;DHT22;10194;50.824;7.134;2023-04-28T13:56:32;20.30;99.90
20068;DHT22;10194;50.824;7.134;2023-04-28T13:58:59;20.30;99.90
20068;DHT22;10194;50.824;7.134;2023-04-28T14:01:25;20.30;99.90
20068;DHT22;10194;50.824;7.134;2023-04-28T14:03:51;20.40;99.90
20068;DHT22;10194;50.824;7.134;2023-04-28T14:06:17;20.40;99.90
20068;DHT22;10194;50.824;7.134;2023-04-28T14:08:43;20.60;99.90
20068;DHT22;10194;50.824;7.134;2023-04-28T14:11:09;20.60;99.90
20068;DHT22;10194;50.824;7.134;2023-04-28T14:13:36;20.60;99.90
20068;DHT22;10194;50.824;7.134;2023-04-28T14:16:01;20.50;99.90
20068;DHT22;10194;50.824;7.134;2023-04-28T14:18:27;20.30;99.90
20068;DHT22;10194;50.824;7.134;2023-04-28T14:20:54;20.10;99.90
20068;DHT22;10194;50.824;7.134;2023-04-28T14:23:20;20.00;99.90
20068;DHT22;10194;50.824;7.134;2023-04-28T14:25:46;19.90;99.90
20068;DHT22;10194;50.824;7.134;2023-04-28T14:28:12;19.70;99.90
20068;DHT22;10194;50.824;7.134;2023-04-28T14:30:38;19.70;99.90
20068;DHT22;10194;50.824;7.134;2023-04-28T14:33:04;19.70;99.90
20068;DHT22;10194;50.824;7.134;2023-04-28T14:35:31;19.70;99.90
20068;DHT22;10194;50.824;7.134;2023-04-28T14:37:56;19.80;99.90
20068;DHT22;10194;50.824;7.134;2023-04-28T14:40:22;19.70;99.90
20068;DHT22;10194;50.824;7.134;2023-04-28T14:42:49;19.80;99.90
20068;DHT22;10194;50.824;7.134;2023-04-28T14:45:15;19.80;99.90
20068;DHT22;10194;50.824;7.134;2023-04-28T14:47:41;19.90;99.90
20068;DHT22;10194;50.824;7.134;2023-04-28T14:50:08;19.90;99.90
20068;DHT22;10194;50.824;7.134;2023-04-28T14:52:33;19.90;99.90
20068;DHT22;10194;50.824;7.134;2023-04-28T14:55:00;20.00;99.90
20068;DHT22;10194;50.824;7.134;2023-04-28T14:57:26;20.10;99.90
20068;DHT22;10194;50.824;7.134;2023-04-28T14:59:52;20.30;99.90
20068;DHT22;10194;50.824;7.134;2023-04-28T15:02:19;20.40;99.90
20068;DHT22;10194;50.824;7.134;2023-04-28T15:04:53;20.60;99.90
20068;DHT22;10194;50.824;7.134;2023-04-28T15:07:21;20.60;99.90
20068;DHT22;10194;50.824;7.134;2023-04-28T15:09:47;20.50;99.90
20068;DHT22;10194;50.824;7.134;2023-04-28T15:12:14;20.50;99.90
20068;DHT22;10194;50.824;7.134;2023-04-28T15:14:39;20.50;99.90
20068;DHT22;10194;50.824;7.134;2023-04-28T15:17:06;20.60;99.90
20068;DHT22;10194;50.824;7.134;2023-04-28T15:19:32;21.00;99.90
20068;DHT22;10194;50.824;7.134;2023-04-28T15:21:58;21.00;99.90
20068;DHT22;10194;50.824;7.134;2023-04-28T15:24:24;20.90;99.90
20068;DHT22;10194;50.824;7.134;2023-04-28T15:26:50;20.70;99.90
20068;DHT22;10194;50.824;7.134;2023-04-28T15:29:16;20.50;99.90
20068;DHT22;10194;50.824;7.134;2023-04-28T15:31:42;20.30;99.90
20068;DHT22;10194;50.824;7.134;2023-04-28T15:34:08;20.20;99.90
20068;DHT22;10194;50.824;7.134;2023-04-28T15:36:38;20.10;99.90
20068;DHT22;10194;50.824;7.134;2023-04-28T15:39:05;20.30;99.90
20068;DHT22;10194;50.824;7.134;2023-04-28T15:41:32;20.40;99.90
20068;DHT22;10194;50.824;7.134;2023-04-28T15:43:58;20.50;99.90
20068;DHT22;10194;50.824;7.134;2023-04-28T15:46:26;20.30;99.90
20068;DHT22;10194;50.824;7.134;2023-04-28T15:48:52;20.30;99.90
20068;DHT22;10194;50.824;7.134;2023-04-28T15:51:19;20.30;99.90
20068;DHT22;10194;50.824;7.134;2023-04-28T15:53:45;20.10;99.90
20068;DHT22;10194;50.824;7.134;2023-04-28T15:56:11;20.00;99.90
20068;DHT22;10194;50.824;7.134;2023-04-28T15:58:36;20.00;99.90